createdAt,value
2023-04-27T00:00:55.027Z,6.36
2023-04-27T00:01:55.028Z,6.48
2023-04-27T00:02:55.176Z,6.51
2023-04-27T00:03:55.252Z,6.48
2023-04-27T00:04:55.279Z,6.50
2023-04-27T00:05:55.175Z,6.43
2023-04-27T00:06:55.006Z,6.45
2023-04-27T00:07:54.969Z,6.42
2023-04-27T00:08:54.953Z,6.39
2023-04-27T00:09:54.958Z,6.38
2023-04-27T00:10:54.944Z,6.46
2023-04-27T00:11:54.937Z,6.42
2023-04-27T00:12:54.921Z,6.40
2023-04-27T00:13:54.912Z,6.46
2023-04-27T00:14:54.944Z,6.48
2023-04-27T00:15:54.934Z,6.51
2023-04-27T00:16:54.927Z,6.40
2023-04-27T00:17:54.940Z,6.40
2023-04-27T00:18:54.948Z,6.48
2023-04-27T00:19:54.855Z,6.40
2023-04-27T00:20:54.847Z,6.43
2023-04-27T00:21:54.841Z,6.48
2023-04-27T00:22:54.823Z,6.45
2023-04-27T00:23:54.817Z,6.48
2023-04-27T00:24:54.798Z,6.38
2023-04-27T00:25:54.804Z,6.36
2023-04-27T00:26:54.798Z,6.38
2023-04-27T00:27:54.782Z,6.36
2023-04-27T00:28:54.775Z,6.48
2023-04-27T00:29:54.766Z,6.46
2023-04-27T00:30:54.774Z,6.48
2023-04-27T00:31:54.775Z,6.53
2023-04-27T00:32:54.761Z,6.54
2023-04-27T00:33:54.730Z,6.55
2023-04-27T00:34:54.726Z,6.51
2023-04-27T00:35:54.717Z,6.51
2023-04-27T00:36:54.693Z,6.40
2023-04-27T00:37:54.685Z,6.39
2023-04-27T00:38:54.677Z,6.38
2023-04-27T00:39:54.666Z,6.46
2023-04-27T00:40:54.668Z,6.46
2023-04-27T00:41:54.652Z,6.54
2023-04-27T00:42:54.639Z,6.45
2023-04-27T00:43:54.636Z,6.53
2023-04-27T00:44:54.622Z,6.55
2023-04-27T00:45:54.676Z,6.51
2023-04-27T00:46:54.612Z,6.55
2023-04-27T00:47:54.647Z,6.54
2023-04-27T00:48:54.582Z,6.57
2023-04-27T00:49:54.582Z,6.53
2023-04-27T00:50:54.568Z,6.51
2023-04-27T00:51:54.568Z,6.51
2023-04-27T00:52:54.567Z,6.55
2023-04-27T00:53:54.554Z,6.57
2023-04-27T00:54:54.533Z,6.55
2023-04-27T00:55:54.530Z,6.46
2023-04-27T00:56:54.527Z,6.55
2023-04-27T00:57:54.505Z,6.51
2023-04-27T00:58:54.496Z,6.51
2023-04-27T00:59:54.499Z,6.48
2023-04-27T01:00:54.485Z,6.53
2023-04-27T01:01:54.465Z,6.40
2023-04-27T01:02:54.524Z,6.51
2023-04-27T01:03:54.599Z,6.55
2023-04-27T01:04:54.444Z,6.50
2023-04-27T01:05:54.450Z,6.57
2023-04-27T01:06:54.413Z,6.53
2023-04-27T01:07:54.438Z,6.53
2023-04-27T01:08:54.401Z,6.48
2023-04-27T01:09:54.400Z,6.39
2023-04-27T01:10:54.390Z,6.46
2023-04-27T01:11:54.366Z,6.45
2023-04-27T01:12:54.358Z,6.50
2023-04-27T01:13:54.343Z,6.50
2023-04-27T01:14:54.355Z,6.42
2023-04-27T01:15:54.342Z,6.42
2023-04-27T01:16:54.333Z,6.39
2023-04-27T01:17:54.394Z,6.32
2023-04-27T01:18:54.301Z,6.40
2023-04-27T01:19:54.294Z,6.40
2023-04-27T01:20:54.297Z,6.40
2023-04-27T01:21:54.272Z,6.45
2023-04-27T01:22:54.265Z,6.32
2023-04-27T01:23:54.258Z,6.32
2023-04-27T01:24:54.251Z,6.32
2023-04-27T01:25:54.269Z,6.38
2023-04-27T01:26:54.233Z,6.38
2023-04-27T01:27:54.247Z,6.42
2023-04-27T01:28:54.212Z,6.38
2023-04-27T01:29:54.206Z,6.36
2023-04-27T01:30:54.238Z,6.36
2023-04-27T01:31:54.185Z,6.40
2023-04-27T01:32:54.203Z,6.36
2023-04-27T01:33:54.165Z,6.33
2023-04-27T01:34:54.182Z,6.30
2023-04-27T01:35:54.163Z,6.33
2023-04-27T01:36:54.144Z,6.33
2023-04-27T01:37:54.131Z,6.25
2023-04-27T01:38:54.121Z,6.28
2023-04-27T01:39:54.126Z,6.28
2023-04-27T01:40:54.116Z,6.30
2023-04-27T01:41:55.193Z,6.25
2023-04-27T01:42:54.093Z,6.16
2023-04-27T01:43:54.082Z,6.20
2023-04-27T01:44:54.067Z,6.24
2023-04-27T01:45:54.210Z,6.24
2023-04-27T01:46:54.059Z,6.20
2023-04-27T01:47:54.060Z,6.19
2023-04-27T01:48:54.027Z,6.19
2023-04-27T01:49:54.018Z,6.19
2023-04-27T01:50:54.020Z,6.17
2023-04-27T01:51:54.009Z,6.11
2023-04-27T01:52:53.996Z,6.14
2023-04-27T01:53:53.979Z,6.11
2023-04-27T01:54:53.971Z,6.16
2023-04-27T01:55:53.968Z,6.13
2023-04-27T01:56:53.952Z,6.10
2023-04-27T01:57:53.943Z,6.02
2023-04-27T01:58:53.933Z,5.99
2023-04-27T01:59:53.923Z,6.02
2023-04-27T02:00:53.932Z,6.16
2023-04-27T02:01:53.957Z,6.08
2023-04-27T02:02:54.007Z,6.01
2023-04-27T02:03:53.996Z,6.03
2023-04-27T02:04:53.921Z,5.92
2023-04-27T02:05:53.882Z,5.92
2023-04-27T02:06:53.861Z,5.92
2023-04-27T02:07:53.847Z,5.87
2023-04-27T02:08:53.844Z,5.98
2023-04-27T02:09:53.823Z,5.93
2023-04-27T02:10:54.829Z,5.95
2023-04-27T02:11:53.811Z,5.90
2023-04-27T02:12:53.808Z,5.90
2023-04-27T02:13:53.793Z,5.81
2023-04-27T02:14:53.780Z,5.85
2023-04-27T02:15:53.797Z,5.81
2023-04-27T02:16:53.772Z,5.87
2023-04-27T02:17:53.856Z,5.84
2023-04-27T02:18:53.745Z,5.77
2023-04-27T02:19:53.731Z,5.65
2023-04-27T02:20:53.737Z,5.69
2023-04-27T02:21:53.709Z,5.77
2023-04-27T02:22:54.697Z,5.75
2023-04-27T02:23:53.693Z,5.73
2023-04-27T02:24:53.688Z,5.70
2023-04-27T02:25:53.673Z,5.70
2023-04-27T02:26:53.675Z,5.70
2023-04-27T02:27:53.656Z,5.74
2023-04-27T02:28:53.643Z,5.69
2023-04-27T02:29:53.635Z,5.73
2023-04-27T02:30:53.635Z,5.74
2023-04-27T02:31:53.712Z,5.75
2023-04-27T02:32:53.616Z,5.75
2023-04-27T02:33:53.595Z,5.77
2023-04-27T02:34:53.590Z,5.75
2023-04-27T02:35:53.582Z,5.65
2023-04-27T02:36:53.586Z,5.78
2023-04-27T02:37:53.567Z,5.66
2023-04-27T02:38:53.557Z,5.69
2023-04-27T02:39:53.545Z,5.70
2023-04-27T02:40:53.535Z,5.67
2023-04-27T02:41:53.542Z,5.74
2023-04-27T02:42:53.520Z,5.56
2023-04-27T02:43:53.509Z,5.67
2023-04-27T02:44:53.496Z,5.63
2023-04-27T02:45:53.486Z,5.77
2023-04-27T02:46:53.549Z,5.74
2023-04-27T02:47:53.497Z,5.66
2023-04-27T02:48:53.455Z,5.65
2023-04-27T02:49:53.465Z,5.73
2023-04-27T02:50:53.439Z,5.62
2023-04-27T02:51:53.442Z,5.73
2023-04-27T02:52:53.423Z,5.74
2023-04-27T02:53:53.415Z,5.62
2023-04-27T02:54:53.402Z,5.67
2023-04-27T02:55:53.386Z,5.70
2023-04-27T02:56:53.409Z,5.66
2023-04-27T02:57:53.379Z,5.62
2023-04-27T02:58:53.359Z,5.75
2023-04-27T02:59:53.355Z,5.73
2023-04-27T03:00:53.358Z,5.80
2023-04-27T03:01:53.343Z,5.69
2023-04-27T03:02:53.414Z,5.74
2023-04-27T03:03:53.458Z,5.74
2023-04-27T03:04:53.305Z,5.70
2023-04-27T03:05:53.297Z,5.69
2023-04-27T03:06:53.305Z,5.80
2023-04-27T03:07:53.321Z,5.77
2023-04-27T03:08:53.269Z,5.83
2023-04-27T03:09:53.281Z,5.77
2023-04-27T03:10:53.247Z,5.81
2023-04-27T03:11:53.257Z,5.77
2023-04-27T03:12:53.235Z,5.75
2023-04-27T03:13:53.223Z,5.92
2023-04-27T03:14:53.214Z,5.83
2023-04-27T03:15:53.212Z,5.83
2023-04-27T03:16:53.356Z,5.93
2023-04-27T03:17:53.217Z,5.81
2023-04-27T03:18:53.174Z,5.96
2023-04-27T03:19:53.177Z,5.88
2023-04-27T03:20:53.152Z,5.88
2023-04-27T03:21:53.170Z,5.85
2023-04-27T03:22:53.143Z,5.83
2023-04-27T03:23:53.133Z,5.87
2023-04-27T03:24:53.128Z,5.65
2023-04-27T03:25:53.114Z,5.80
2023-04-27T03:26:53.153Z,5.74
2023-04-27T03:27:53.102Z,5.67
2023-04-27T03:28:53.109Z,5.77
2023-04-27T03:29:53.082Z,5.80
2023-04-27T03:30:53.067Z,5.73
2023-04-27T03:31:53.124Z,5.69
2023-04-27T03:32:53.062Z,5.59
2023-04-27T03:33:53.048Z,5.59
2023-04-27T03:34:53.028Z,5.63
2023-04-27T03:35:53.021Z,5.59
2023-04-27T03:36:53.020Z,5.59
2023-04-27T03:37:53.013Z,5.56
2023-04-27T03:38:52.986Z,5.38
2023-04-27T03:39:52.984Z,5.42
2023-04-27T03:40:52.972Z,5.32
2023-04-27T03:41:52.987Z,5.48
2023-04-27T03:42:52.958Z,5.45
2023-04-27T03:43:52.949Z,5.45
2023-04-27T03:44:52.946Z,5.42
2023-04-27T03:45:53.040Z,5.45
2023-04-27T03:46:52.940Z,5.45
2023-04-27T03:47:52.969Z,5.42
2023-04-27T03:48:52.910Z,5.37
2023-04-27T03:49:52.921Z,5.41
2023-04-27T03:50:52.898Z,5.37
2023-04-27T03:51:52.892Z,5.49
2023-04-27T03:52:52.871Z,5.47
2023-04-27T03:53:52.893Z,5.44
2023-04-27T03:54:52.854Z,5.47
2023-04-27T03:55:52.852Z,5.48
2023-04-27T03:56:52.842Z,5.47
2023-04-27T03:57:52.828Z,5.49
2023-04-27T03:58:52.829Z,5.41
2023-04-27T03:59:52.801Z,5.49
2023-04-27T04:00:52.798Z,5.47
2023-04-27T04:01:52.807Z,5.45
2023-04-27T04:02:53.076Z,5.44
2023-04-27T04:03:52.843Z,5.45
2023-04-27T04:04:52.979Z,5.49
2023-04-27T04:05:52.750Z,5.52
2023-04-27T04:06:52.749Z,5.48
2023-04-27T04:07:52.733Z,5.55
2023-04-27T04:08:52.730Z,5.45
2023-04-27T04:09:52.719Z,5.27
2023-04-27T04:10:52.706Z,5.17
2023-04-27T04:11:52.707Z,5.19
2023-04-27T04:12:52.691Z,5.12
2023-04-27T04:13:52.697Z,5.17
2023-04-27T04:14:52.667Z,5.11
2023-04-27T04:15:52.722Z,5.17
2023-04-27T04:16:52.670Z,5.17
2023-04-27T04:17:52.700Z,5.14
2023-04-27T04:18:52.631Z,5.23
2023-04-27T04:19:52.617Z,5.26
2023-04-27T04:20:52.616Z,5.22
2023-04-27T04:21:52.613Z,5.32
2023-04-27T04:22:52.597Z,5.27
2023-04-27T04:23:52.598Z,5.40
2023-04-27T04:24:52.584Z,5.33
2023-04-27T04:25:52.569Z,5.37
2023-04-27T04:26:52.573Z,5.30
2023-04-27T04:27:52.549Z,5.22
2023-04-27T04:28:52.547Z,5.33
2023-04-27T04:29:52.525Z,5.22
2023-04-27T04:30:52.571Z,5.26
2023-04-27T04:31:52.733Z,5.26
2023-04-27T04:32:52.552Z,5.23
2023-04-27T04:33:52.494Z,5.15
2023-04-27T04:34:52.489Z,5.20
2023-04-27T04:35:52.511Z,5.17
2023-04-27T04:36:52.498Z,5.12
2023-04-27T04:37:52.460Z,5.17
2023-04-27T04:38:52.468Z,5.19
2023-04-27T04:39:52.448Z,5.11
2023-04-27T04:40:52.431Z,5.11
2023-04-27T04:41:52.436Z,5.06
2023-04-27T04:42:52.412Z,5.01
2023-04-27T04:43:52.413Z,5.02
2023-04-27T04:44:52.436Z,4.75
2023-04-27T04:45:52.383Z,4.64
2023-04-27T04:46:52.439Z,4.62
2023-04-27T04:47:52.388Z,4.61
2023-04-27T04:48:54.495Z,4.50
2023-04-27T04:49:52.353Z,4.59
2023-04-27T04:50:52.339Z,4.68
2023-04-27T04:51:52.342Z,4.74
2023-04-27T04:52:52.325Z,4.83
2023-04-27T04:53:52.308Z,4.86
2023-04-27T04:54:52.345Z,4.88
2023-04-27T04:55:52.296Z,4.88
2023-04-27T04:56:52.300Z,4.94
2023-04-27T04:57:52.285Z,4.96
2023-04-27T04:58:52.268Z,4.97
2023-04-27T04:59:52.265Z,5.01
2023-04-27T05:00:52.256Z,4.99
2023-04-27T05:01:52.266Z,5.05
2023-04-27T05:02:52.301Z,5.12
2023-04-27T05:03:52.363Z,5.05
2023-04-27T05:04:52.489Z,5.19
2023-04-27T05:05:52.220Z,5.22
2023-04-27T05:06:52.212Z,5.30
2023-04-27T05:07:52.191Z,5.32
2023-04-27T05:08:52.194Z,5.45
2023-04-27T05:09:52.183Z,5.47
2023-04-27T05:10:52.164Z,5.47
2023-04-27T05:11:52.197Z,5.42
2023-04-27T05:12:52.151Z,5.33
2023-04-27T05:13:52.143Z,5.47
2023-04-27T05:14:52.128Z,5.55
2023-04-27T05:15:52.192Z,5.47
2023-04-27T05:16:52.116Z,5.52
2023-04-27T05:17:52.124Z,5.55
2023-04-27T05:18:52.097Z,5.47
2023-04-27T05:19:52.100Z,5.59
2023-04-27T05:20:52.075Z,5.56
2023-04-27T05:21:52.081Z,5.63
2023-04-27T05:22:52.061Z,5.70
2023-04-27T05:23:52.050Z,5.63
2023-04-27T05:24:52.042Z,5.63
2023-04-27T05:25:52.032Z,5.65
2023-04-27T05:26:52.042Z,5.65
2023-04-27T05:27:52.017Z,5.62
2023-04-27T05:28:52.006Z,5.75
2023-04-27T05:29:52.107Z,5.75
2023-04-27T05:30:51.995Z,5.78
2023-04-27T05:31:52.057Z,5.69
2023-04-27T05:32:51.991Z,5.74
2023-04-27T05:33:51.970Z,5.80
2023-04-27T05:34:51.960Z,5.88
2023-04-27T05:35:51.947Z,5.95
2023-04-27T05:36:51.948Z,5.87
2023-04-27T05:37:51.932Z,5.99
2023-04-27T05:38:51.922Z,6.06
2023-04-27T05:39:51.910Z,6.05
2023-04-27T05:40:52.514Z,6.13
2023-04-27T05:41:51.903Z,6.06
2023-04-27T05:42:51.893Z,6.17
2023-04-27T05:43:51.884Z,6.13
2023-04-27T05:44:51.864Z,6.13
2023-04-27T05:45:51.926Z,6.13
2023-04-27T05:46:51.870Z,6.01
2023-04-27T05:47:51.865Z,5.88
2023-04-27T05:48:51.831Z,5.92
2023-04-27T05:49:51.824Z,5.87
2023-04-27T05:50:51.810Z,5.96
2023-04-27T05:51:51.818Z,5.96
2023-04-27T05:52:51.795Z,5.95
2023-04-27T05:53:51.784Z,5.88
2023-04-27T05:54:51.792Z,5.81
2023-04-27T05:55:51.767Z,5.66
2023-04-27T05:56:51.784Z,5.56
2023-04-27T05:57:57.267Z,5.55
2023-04-27T05:58:53.739Z,5.47
2023-04-27T05:59:51.734Z,5.60
2023-04-27T06:00:51.723Z,5.77
2023-04-27T06:01:51.738Z,5.78
2023-04-27T06:02:51.844Z,5.83
2023-04-27T06:03:51.772Z,5.93
2023-04-27T06:04:51.719Z,5.66
2023-04-27T06:05:51.678Z,5.63
2023-04-27T06:06:51.678Z,5.78
2023-04-27T06:07:51.675Z,5.73
2023-04-27T06:08:51.652Z,5.96
2023-04-27T06:09:51.646Z,5.98
2023-04-27T06:10:51.630Z,5.85
2023-04-27T06:11:51.628Z,5.84
2023-04-27T06:12:51.634Z,5.80
2023-04-27T06:13:51.612Z,5.74
2023-04-27T06:14:51.600Z,5.67
2023-04-27T06:15:51.637Z,5.42
2023-04-27T06:16:51.586Z,5.51
2023-04-27T06:17:51.644Z,5.63
2023-04-27T06:18:51.557Z,5.59
2023-04-27T06:19:51.559Z,5.77
2023-04-27T06:20:51.566Z,5.65
2023-04-27T06:21:51.534Z,5.66
2023-04-27T06:22:51.539Z,5.70
2023-04-27T06:23:51.514Z,5.73
2023-04-27T06:24:51.504Z,5.63
2023-04-27T06:25:51.523Z,5.59
2023-04-27T06:26:51.487Z,5.56
2023-04-27T06:27:51.500Z,5.74
2023-04-27T06:28:51.472Z,5.80
2023-04-27T06:29:51.461Z,5.74
2023-04-27T06:30:51.459Z,5.67
2023-04-27T06:31:51.476Z,5.58
2023-04-27T06:32:52.460Z,5.47
2023-04-27T06:33:51.471Z,5.47
2023-04-27T06:34:51.475Z,5.66
2023-04-27T06:35:51.411Z,5.80
2023-04-27T06:36:51.416Z,5.93
2023-04-27T06:37:51.395Z,6.13
2023-04-27T06:38:51.376Z,5.96
2023-04-27T06:39:51.394Z,6.08
2023-04-27T06:42:17.218Z,6.20
2023-04-27T06:43:17.214Z,6.16
2023-04-27T06:44:17.414Z,6.21
2023-04-27T06:45:17.194Z,6.33
2023-04-27T06:46:17.199Z,6.28
2023-04-27T06:47:17.201Z,6.16
2023-04-27T06:48:17.265Z,6.39
2023-04-27T06:49:17.161Z,6.42
2023-04-27T06:50:17.169Z,6.55
2023-04-27T06:51:18.247Z,6.03
2023-04-27T06:52:18.266Z,6.05
2023-04-27T06:53:18.228Z,6.21
2023-04-27T06:54:19.225Z,6.40
2023-04-27T06:55:18.221Z,6.65
2023-04-27T06:56:18.210Z,6.72
2023-04-27T06:57:18.204Z,6.94
2023-04-27T06:58:18.191Z,6.91
2023-04-27T06:59:18.349Z,6.60
2023-04-27T07:00:18.176Z,6.72
2023-04-27T07:01:18.196Z,6.55
2023-04-27T07:02:18.188Z,6.60
2023-04-27T07:03:18.276Z,6.82
2023-04-27T07:04:18.242Z,6.94
2023-04-27T07:05:18.124Z,7.00
2023-04-27T07:06:18.120Z,7.09
2023-04-27T07:07:18.123Z,7.26
2023-04-27T07:08:18.099Z,6.96
2023-04-27T07:09:26.926Z,6.79
2023-04-27T07:10:20.077Z,6.68
2023-04-27T07:11:18.070Z,6.78
2023-04-27T07:12:18.135Z,6.89
2023-04-27T07:13:18.047Z,6.82
2023-04-27T07:14:18.039Z,6.79
2023-04-27T07:15:18.030Z,6.82
2023-04-27T07:16:18.050Z,6.79
2023-04-27T07:17:18.111Z,6.65
2023-04-27T07:18:17.996Z,6.63
2023-04-27T07:19:18.006Z,7.05
2023-04-27T07:20:18.053Z,7.11
2023-04-27T07:21:17.994Z,7.08
2023-04-27T07:22:18.037Z,7.05
2023-04-27T07:23:17.947Z,7.05
2023-04-27T07:24:17.939Z,7.12
2023-04-27T07:25:17.933Z,7.32
2023-04-27T07:26:17.926Z,7.39
2023-04-27T07:27:17.923Z,7.23
2023-04-27T07:28:17.914Z,6.91
2023-04-27T07:29:26.438Z,6.91
2023-04-27T07:30:19.883Z,6.93
2023-04-27T07:31:17.906Z,6.94
2023-04-27T07:32:17.964Z,6.90
2023-04-27T07:33:17.850Z,7.08
2023-04-27T07:34:17.845Z,7.05
2023-04-27T07:35:17.843Z,7.19
2023-04-27T07:36:17.826Z,7.27
2023-04-27T07:37:17.829Z,7.36
2023-04-27T07:38:17.801Z,7.37
2023-04-27T07:39:17.795Z,7.44
2023-04-27T07:40:17.795Z,7.14
2023-04-27T07:41:17.791Z,6.94
2023-04-27T07:42:17.779Z,7.14
2023-04-27T07:43:17.759Z,7.29
2023-04-27T07:44:17.747Z,7.21
2023-04-27T07:45:17.736Z,7.12
2023-04-27T07:46:17.794Z,7.05
2023-04-27T07:47:17.724Z,6.82
2023-04-27T07:48:17.750Z,6.75
2023-04-27T07:49:17.690Z,6.75
2023-04-27T07:50:17.698Z,6.86
2023-04-27T07:51:17.672Z,6.71
2023-04-27T07:52:17.687Z,6.72
2023-04-27T07:53:17.698Z,6.69
2023-04-27T07:54:17.648Z,6.68
2023-04-27T07:55:17.632Z,6.71
2023-04-27T07:56:17.629Z,6.82
2023-04-27T07:57:17.623Z,6.78
2023-04-27T07:58:17.605Z,7.08
2023-04-27T07:59:17.611Z,7.19
2023-04-27T08:00:17.596Z,7.16
2023-04-27T08:01:19.509Z,7.27
2023-04-27T08:02:19.599Z,7.52
2023-04-27T08:03:18.781Z,7.37
2023-04-27T08:04:17.841Z,7.44
2023-04-27T08:05:17.751Z,7.47
2023-04-27T08:06:18.116Z,7.69
2023-04-27T08:07:17.911Z,7.66
2023-04-27T08:08:18.033Z,7.60
2023-04-27T08:09:17.547Z,7.45
2023-04-27T08:10:17.501Z,7.50
2023-04-27T08:11:17.490Z,7.74
2023-04-27T08:12:17.489Z,8.10
2023-04-27T08:13:17.471Z,8.27
2023-04-27T08:14:17.453Z,8.13
2023-04-27T08:15:18.456Z,8.00
2023-04-27T08:16:17.484Z,7.74
2023-04-27T08:17:17.459Z,7.29
2023-04-27T08:18:17.451Z,7.19
2023-04-27T08:19:17.408Z,7.15
2023-04-27T08:20:17.399Z,7.18
2023-04-27T08:21:17.392Z,7.14
2023-04-27T08:22:17.377Z,7.30
2023-04-27T08:23:17.377Z,7.63
2023-04-27T08:24:17.368Z,7.79
2023-04-27T08:25:17.366Z,8.06
2023-04-27T08:26:17.355Z,7.96
2023-04-27T08:27:17.330Z,7.91
2023-04-27T08:28:17.328Z,8.07
2023-04-27T08:29:27.221Z,8.00
2023-04-27T08:30:19.300Z,8.18
2023-04-27T08:31:17.295Z,8.31
2023-04-27T08:32:17.297Z,8.18
2023-04-27T08:33:17.295Z,8.28
2023-04-27T08:34:17.264Z,8.21
2023-04-27T08:35:17.262Z,8.28
2023-04-27T08:36:17.246Z,8.40
2023-04-27T08:37:17.239Z,8.39
2023-04-27T08:38:17.254Z,8.28
2023-04-27T08:39:17.214Z,8.47
2023-04-27T08:40:17.220Z,8.36
2023-04-27T08:41:21.824Z,8.40
2023-04-27T08:42:18.192Z,8.13
2023-04-27T08:43:17.190Z,8.03
2023-04-27T08:44:17.184Z,8.09
2023-04-27T08:45:17.161Z,8.45
2023-04-27T08:46:17.185Z,8.67
2023-04-27T08:47:18.834Z,8.68
2023-04-27T08:48:17.189Z,8.54
2023-04-27T08:49:17.509Z,8.52
2023-04-27T08:50:17.116Z,8.39
2023-04-27T08:51:17.095Z,8.22
2023-04-27T08:52:18.102Z,8.06
2023-04-27T08:53:17.377Z,8.06
2023-04-27T08:54:17.166Z,8.10
2023-04-27T08:55:17.072Z,8.34
2023-04-27T08:56:17.054Z,8.63
2023-04-27T08:57:17.164Z,8.71
2023-04-27T08:58:17.051Z,8.67
2023-04-27T08:59:17.549Z,8.76
2023-04-27T09:00:17.010Z,9.12
2023-04-27T09:01:17.068Z,9.27
2023-04-27T09:02:17.075Z,9.41
2023-04-27T09:03:17.090Z,9.15
2023-04-27T09:04:17.151Z,9.22
2023-04-27T09:05:16.987Z,9.34
2023-04-27T09:06:17.116Z,9.48
2023-04-27T09:07:16.947Z,9.74
2023-04-27T09:08:16.938Z,9.74
2023-04-27T09:09:16.928Z,9.73
2023-04-27T09:10:16.906Z,9.67
2023-04-27T09:11:16.896Z,9.86
2023-04-27T09:12:16.889Z,9.52
2023-04-27T09:13:16.924Z,8.93
2023-04-27T09:14:16.878Z,8.47
2023-04-27T09:15:16.861Z,8.50
2023-04-27T09:16:16.962Z,8.47
2023-04-27T09:17:16.863Z,8.54
2023-04-27T09:18:16.831Z,8.39
2023-04-27T09:19:16.821Z,8.21
2023-04-27T09:20:16.807Z,8.29
2023-04-27T09:21:16.803Z,8.42
2023-04-27T09:22:16.809Z,8.24
2023-04-27T09:23:16.788Z,8.22
2023-04-27T09:24:16.771Z,8.32
2023-04-27T09:25:16.768Z,8.22
2023-04-27T09:26:16.753Z,8.21
2023-04-27T09:27:16.759Z,8.18
2023-04-27T09:28:16.735Z,8.17
2023-04-27T09:29:16.729Z,8.24
2023-04-27T09:30:16.717Z,8.17
2023-04-27T09:31:16.711Z,8.18
2023-04-27T09:32:17.165Z,8.09
2023-04-27T09:33:17.697Z,8.06
2023-04-27T09:34:16.677Z,8.09
2023-04-27T09:35:16.671Z,8.00
2023-04-27T09:36:16.655Z,8.07
2023-04-27T09:37:16.666Z,8.20
2023-04-27T09:38:17.060Z,8.37
2023-04-27T09:39:17.629Z,8.37
2023-04-27T09:40:16.626Z,8.40
2023-04-27T09:41:16.612Z,8.46
2023-04-27T09:42:16.613Z,8.47
2023-04-27T09:43:16.602Z,8.58
2023-04-27T09:44:16.584Z,8.65
2023-04-27T09:45:16.587Z,8.52
2023-04-27T09:46:16.577Z,8.47
2023-04-27T09:47:16.560Z,8.40
2023-04-27T09:48:16.544Z,8.63
2023-04-27T09:49:16.530Z,8.75
2023-04-27T09:50:16.518Z,9.10
2023-04-27T09:51:16.514Z,9.26
2023-04-27T09:52:16.516Z,9.20
2023-04-27T09:53:16.502Z,8.63
2023-04-27T09:54:16.490Z,8.73
2023-04-27T09:55:16.472Z,8.57
2023-04-27T09:56:16.555Z,8.67
2023-04-27T09:57:16.465Z,8.64
2023-04-27T09:58:16.449Z,8.60
2023-04-27T09:59:17.429Z,8.83
2023-04-27T10:00:16.420Z,9.03
2023-04-27T10:01:16.464Z,9.15
2023-04-27T10:02:24.731Z,9.41
2023-04-27T10:03:18.453Z,9.24
2023-04-27T10:04:17.583Z,9.04
2023-04-27T10:05:16.415Z,9.16
2023-04-27T10:06:16.368Z,9.24
2023-04-27T10:07:16.370Z,9.48
2023-04-27T10:08:16.349Z,9.56
2023-04-27T10:09:16.358Z,9.71
2023-04-27T10:10:16.336Z,9.48
2023-04-27T10:11:16.346Z,9.40
2023-04-27T10:12:16.331Z,9.62
2023-04-27T10:13:16.295Z,9.73
2023-04-27T10:14:16.290Z,9.75
2023-04-27T10:15:16.298Z,10.06
2023-04-27T10:16:16.362Z,10.34
2023-04-27T10:17:16.294Z,10.43
2023-04-27T10:18:16.287Z,10.57
2023-04-27T10:19:16.335Z,10.57
2023-04-27T10:20:16.242Z,10.62
2023-04-27T10:21:16.209Z,10.51
2023-04-27T10:22:17.202Z,10.70
2023-04-27T10:23:16.201Z,10.39
2023-04-27T10:24:16.184Z,10.25
2023-04-27T10:25:16.177Z,9.96
2023-04-27T10:26:16.164Z,9.60
2023-04-27T10:27:16.186Z,9.48
2023-04-27T10:28:16.150Z,9.60
2023-04-27T10:29:16.333Z,9.92
2023-04-27T10:30:16.120Z,10.02
2023-04-27T10:31:16.161Z,10.11
2023-04-27T10:32:16.113Z,10.38
2023-04-27T10:33:16.098Z,10.57
2023-04-27T10:34:16.080Z,10.70
2023-04-27T10:35:16.072Z,10.83
2023-04-27T10:36:16.072Z,11.20
2023-04-27T10:37:16.061Z,11.38
2023-04-27T10:38:16.042Z,11.51
2023-04-27T10:39:16.588Z,11.75
2023-04-27T10:40:16.017Z,12.12
2023-04-27T10:41:17.018Z,12.51
2023-04-27T10:42:16.007Z,12.81
2023-04-27T10:43:15.991Z,12.91
2023-04-27T10:44:15.976Z,12.40
2023-04-27T10:45:15.972Z,12.22
2023-04-27T10:46:16.373Z,11.57
2023-04-27T10:47:15.958Z,11.78
2023-04-27T10:48:16.104Z,11.57
2023-04-27T10:49:15.936Z,11.98
2023-04-27T10:50:15.917Z,12.30
2023-04-27T10:51:15.925Z,12.76
2023-04-27T10:52:15.976Z,12.56
2023-04-27T10:53:15.898Z,12.74
2023-04-27T10:54:15.886Z,12.95
2023-04-27T10:55:15.867Z,13.13
2023-04-27T10:56:15.903Z,13.17
2023-04-27T10:57:15.858Z,12.96
2023-04-27T10:58:15.840Z,13.13
2023-04-27T10:59:16.008Z,13.17
2023-04-27T11:00:16.557Z,13.28
2023-04-27T11:01:16.851Z,13.61
2023-04-27T11:02:15.843Z,13.90
2023-04-27T11:03:15.947Z,14.13
2023-04-27T11:04:16.023Z,14.44
2023-04-27T11:05:15.837Z,14.83
2023-04-27T11:06:15.748Z,14.80
2023-04-27T11:07:15.790Z,14.91
2023-04-27T11:08:15.746Z,15.19
2023-04-27T11:09:15.727Z,14.79
2023-04-27T11:10:15.759Z,13.71
2023-04-27T11:11:16.703Z,13.44
2023-04-27T11:12:16.697Z,13.25
2023-04-27T11:13:15.734Z,12.84
2023-04-27T11:14:15.949Z,12.74
2023-04-27T11:15:15.665Z,12.80
2023-04-27T11:16:15.697Z,12.81
2023-04-27T11:17:16.654Z,12.59
2023-04-27T11:18:15.665Z,12.96
2023-04-27T11:19:15.925Z,13.10
2023-04-27T11:20:15.682Z,13.48
2023-04-27T11:21:15.618Z,14.01
2023-04-27T11:22:15.602Z,13.68
2023-04-27T11:23:15.577Z,13.50
2023-04-27T11:24:15.756Z,12.48
2023-04-27T11:25:15.556Z,11.44
2023-04-27T11:26:15.545Z,11.01
2023-04-27T11:27:15.549Z,11.24
2023-04-27T11:28:15.540Z,11.39
2023-04-27T11:29:15.721Z,11.54
2023-04-27T11:30:15.567Z,11.60
2023-04-27T11:31:15.573Z,11.79
2023-04-27T11:32:15.497Z,11.84
2023-04-27T11:33:15.488Z,12.16
2023-04-27T11:34:16.271Z,12.38
2023-04-27T11:35:16.470Z,12.43
2023-04-27T11:36:15.465Z,12.22
2023-04-27T11:37:18.377Z,12.38
2023-04-27T11:38:16.434Z,12.94
2023-04-27T11:39:15.644Z,13.32
2023-04-27T11:40:15.430Z,12.63
2023-04-27T11:41:15.404Z,12.05
2023-04-27T11:42:15.414Z,11.64
2023-04-27T11:43:15.414Z,11.62
2023-04-27T11:44:15.377Z,12.29
2023-04-27T11:45:15.369Z,12.41
2023-04-27T11:46:15.483Z,11.85
2023-04-27T11:47:16.892Z,12.38
2023-04-27T11:48:15.335Z,12.61
2023-04-27T11:49:15.598Z,12.94
2023-04-27T11:50:15.375Z,13.43
2023-04-27T11:51:15.302Z,13.09
2023-04-27T11:52:15.305Z,12.84
2023-04-27T11:53:17.462Z,12.96
2023-04-27T11:54:15.477Z,12.84
2023-04-27T11:55:15.277Z,12.41
2023-04-27T11:56:15.279Z,11.87
2023-04-27T11:57:15.257Z,11.63
2023-04-27T11:58:15.237Z,12.04
2023-04-27T11:59:15.326Z,11.64
2023-04-27T12:00:15.279Z,11.72
2023-04-27T12:01:18.123Z,11.60
2023-04-27T12:02:16.247Z,11.24
2023-04-27T12:03:15.358Z,11.17
2023-04-27T12:04:15.528Z,11.16
2023-04-27T12:05:15.487Z,10.90
2023-04-27T12:06:31.753Z,10.88
2023-04-27T12:07:17.163Z,10.72
2023-04-27T12:08:15.135Z,10.39
2023-04-27T12:09:15.124Z,10.44
2023-04-27T12:10:15.114Z,10.54
2023-04-27T12:11:15.101Z,10.55
2023-04-27T12:12:15.085Z,10.87
2023-04-27T12:13:15.086Z,11.11
2023-04-27T12:14:15.362Z,11.38
2023-04-27T12:15:15.061Z,11.28
2023-04-27T12:16:15.123Z,11.26
2023-04-27T12:17:15.062Z,10.98
2023-04-27T12:18:15.118Z,10.86
2023-04-27T12:19:15.041Z,10.84
2023-04-27T12:20:15.016Z,10.69
2023-04-27T12:21:14.996Z,10.57
2023-04-27T12:22:14.980Z,10.60
2023-04-27T12:23:14.985Z,10.51
2023-04-27T12:24:15.145Z,10.65
2023-04-27T12:25:14.954Z,11.08
2023-04-27T12:26:15.314Z,11.31
2023-04-27T12:27:15.936Z,11.56
2023-04-27T12:28:14.935Z,11.96
2023-04-27T12:29:14.907Z,12.15
2023-04-27T12:30:14.899Z,12.22
2023-04-27T12:31:14.912Z,12.33
2023-04-27T12:32:14.882Z,12.79
2023-04-27T12:33:14.927Z,12.99
2023-04-27T12:34:15.120Z,12.94
2023-04-27T12:35:14.846Z,12.73
2023-04-27T12:36:14.840Z,12.38
2023-04-27T12:37:14.823Z,11.96
2023-04-27T12:38:14.829Z,11.44
2023-04-27T12:39:14.826Z,11.26
2023-04-27T12:40:14.796Z,11.17
2023-04-27T12:41:14.786Z,11.23
2023-04-27T12:42:46.756Z,11.20
2023-04-27T12:43:14.785Z,11.01
2023-04-27T12:44:15.150Z,10.65
2023-04-27T12:45:14.744Z,10.86
2023-04-27T12:46:14.776Z,11.01
2023-04-27T12:47:27.887Z,11.01
2023-04-27T12:48:17.662Z,11.16
2023-04-27T12:49:14.708Z,11.39
2023-04-27T12:50:14.691Z,11.84
2023-04-27T12:51:14.684Z,11.98
2023-04-27T12:52:14.669Z,12.29
2023-04-27T12:53:14.677Z,12.58
2023-04-27T12:54:14.820Z,12.79
2023-04-27T12:55:28.957Z,13.35
2023-04-27T12:56:16.632Z,13.63
2023-04-27T12:57:14.626Z,13.99
2023-04-27T12:58:14.645Z,14.17
2023-04-27T12:59:14.608Z,14.48
2023-04-27T13:00:14.608Z,14.53
2023-04-27T13:01:14.668Z,14.74
2023-04-27T13:02:14.652Z,14.90
2023-04-27T13:03:14.678Z,15.19
2023-04-27T13:04:14.816Z,15.41
2023-04-27T13:05:14.563Z,15.38
2023-04-27T13:06:14.530Z,15.43
2023-04-27T13:07:14.520Z,15.62
2023-04-27T13:08:14.516Z,15.86
2023-04-27T13:09:14.508Z,15.85
2023-04-27T13:10:14.486Z,15.73
2023-04-27T13:11:14.483Z,15.44
2023-04-27T13:12:14.799Z,15.20
2023-04-27T13:13:14.472Z,15.15
2023-04-27T13:14:14.632Z,14.82